• Join FlightAware (Why Join?)
  • Login
  • US Flag 
11:00AM EST


 

Airport Tracker/Info


-or-


 

Live Flight TrackerFlight Track Log ✈ N146TS ✈ 14-Oct-2013 ✈ KBOS - KDXR

Flight Track Log - Related Links

Times and Time Zones

All times are in EDT time to prevent confusion due to time zone crossing. See the N146TS flight status page for this flight to view local times or setup timezone preferences in your user account.

Time Position Orientation Groundspeed Altitude Reporting Facility
EDT Latitude Longitude Course Direction KTS MPH feet Rate Location/Type
04:26PM 42.3667 -71.0167 257° West 95 109 500  Level KA90
04:28PM 42.3500 -71.0500 236° Southwest 95 109 1,700 900 Climbing KA90
04:29PM 42.3500 -71.1000 270° West 91 105 2,600 720 Climbing KA90
04:30PM 42.3500 -71.1167 270° West 101 116 3,200 600 Climbing KA90
04:30PM 42.3333 -71.1500 236° Southwest 103 119 3,800 420 Climbing KA90
04:31PM 42.3167 -71.1833 236° Southwest 137 158 4,100 360 Climbing KA90
04:32PM 42.2568 -71.2818 257° West  Level Estimated
04:32PM 42.2833 -71.2333 228° Southwest 125 144 4,600  Level KA90
04:34PM 42.2667 -71.2667 236° Southwest 119 137 5,100 420 Climbing KA90
04:35PM 42.2667 -71.3167 270° West 119 137 5,600 420 Climbing KA90
04:36PM 42.2500 -71.3500 236° Southwest 117 135 6,000 180 Climbing KA90
04:36PM 42.2500 -71.4000 270° West 144 166 6,000  Level KA90
04:37PM 42.2356 -71.4306 237° Southwest 145 167 6,000  Level Boston Center
04:37PM 42.2314 -71.4531 256° West 145 167 6,000  Level Boston Center
04:38PM 42.2214 -71.5036 255° West 136 157 6,000  Level Boston Center
04:39PM 42.2156 -71.5542 261° West 138 159 6,000  Level Boston Center
04:41PM 42.2056 -71.6019 254° West 137 158 6,000  Level Boston Center
04:42PM 42.1956 -71.6525 255° West 135 155 6,000  Level Boston Center
04:43PM 42.1856 -71.7061 256° West 136 157 6,000  Level Boston Center
04:44PM 42.1733 -71.7567 252° West 138 159 6,000  Level Boston Center
04:45PM 42.1589 -71.8072 249° West 139 160 6,000  Level Boston Center
04:46PM 42.1489 -71.8575 255° West 137 158 6,000  Level Boston Center
04:47PM 42.1367 -71.9081 252° West 137 158 6,000  Level Boston Center
04:48PM 42.1222 -71.9558 248° West 139 160 6,000  Level Boston Center
04:49PM 42.1078 -72.0036 248° West 136 157 6,000  Level Boston Center
04:50PM 42.0892 -72.0456 239° Southwest 142 163 6,000  Level Boston Center
04:51PM 42.0581 -72.0794 219° Southwest 138 159 6,000  Level Boston Center
04:52PM 42.0289 -72.1158 223° Southwest 142 163 6,000  Level Boston Center
04:53PM 41.9978 -72.1525 221° Southwest 143 165 6,000  Level Boston Center
04:54PM 41.9667 -72.1831 216° Southwest 142 163 6,000  Level Boston Center
04:55PM 41.9356 -72.2225 223° Southwest 148 170 6,000  Level Boston Center
04:56PM 41.9022 -72.2617 221° Southwest 143 165 6,000  Level Boston Center
04:57PM 41.8731 -72.2950 220° Southwest 142 163 6,000  Level Boston Center
04:58PM 41.8417 -72.3286 219° Southwest 140 161 6,000  Level Boston Center
04:59PM 41.8044 -72.3539 207° Southwest 144 166 6,000  Level Boston Center
05:00PM 41.7689 -72.3789 208° Southwest 142 163 6,000  Level Boston Center
05:01PM 41.7336 -72.4039 208° Southwest 144 166 6,000 -60 Level Boston Center
05:02PM 41.6981 -72.4289 208° Southwest 144 166 5,900 -240 Descending Boston Center
05:03PM 41.6794 -72.4761 242° Southwest 148 170 5,600 -300 Descending Boston Center
05:04PM 41.6625 -72.5233 244° Southwest 147 169 5,300 -300 Descending Boston Center
05:05PM 41.6481 -72.5733 249° West 148 170 5,100 -300 Descending Boston Center
05:06PM 41.6333 -72.6233 249° West 147 169 4,800 -300 Descending Boston Center
05:07PM 41.6167 -72.6789 248° West 150 173 4,500 -180 Descending Boston Center
05:08PM 41.6039 -72.7289 251° West 137 158 4,500  Level Boston Center
05:09PM 41.5914 -72.7731 249° West 137 158 4,500  Level Boston Center
05:10PM 41.5744 -72.8203 244° Southwest 137 158 4,500  Level Boston Center
05:11PM 41.5597 -72.8700 248° West 149 171 4,500  Level Boston Center
05:13PM 41.5333 -72.9500 246° West 152 175 4,500  Level New York TRACON
05:14PM 41.5167 -73.0000 246° West 153 176 4,500  Level New York TRACON
05:15PM 41.5000 -73.0500 246° West 146 168 4,500  Level New York TRACON
05:16PM 41.4833 -73.1000 246° West 156 180 4,500  Level New York TRACON
05:17PM 41.4667 -73.1500 246° West 150 173 4,500  Level New York TRACON
05:19PM 41.4365 -73.2296 249° West  Level FlightAware Approximate
05:26PM 41.3667 -73.4667 249° West  Level FlightAware Approximate
05:27PM 41.3715 -73.4822 249° West  Level Estimated
05:28PM 41.3715 -73.4822 249° West  Level Estimated
05:29PM 41.3715 -73.4822 249° West  Level Estimated
05:30PM 41.3715 -73.4822 249° West  Level Estimated
05:31PM 41.3715 -73.4822 249° West  Level Estimated
05:32PM 41.3715 -73.4822 249° West  Level Estimated
05:33PM 41.3715 -73.4822 249° West  Level Estimated